createdAt,value
2023-05-11T00:02:11.984Z,4.72
2023-05-11T00:04:41.133Z,4.20
2023-05-11T00:07:09.133Z,4.18
2023-05-11T00:09:36.446Z,4.65
2023-05-11T00:12:04.552Z,4.43
2023-05-11T00:14:32.034Z,4.28
2023-05-11T00:16:59.866Z,4.80
2023-05-11T00:19:27.158Z,3.95
2023-05-11T00:21:56.303Z,3.85
2023-05-11T00:24:23.704Z,5.03
2023-05-11T00:26:51.678Z,3.90
2023-05-11T00:29:18.973Z,4.75
2023-05-11T00:31:46.896Z,3.83
2023-05-11T00:34:14.554Z,4.43
2023-05-11T00:36:42.243Z,4.80
2023-05-11T00:39:11.479Z,4.03
2023-05-11T00:41:39.460Z,4.10
2023-05-11T00:44:06.938Z,4.55
2023-05-11T00:46:34.846Z,4.10
2023-05-11T00:49:02.336Z,4.60
2023-05-11T00:51:32.072Z,4.72
2023-05-11T00:53:59.541Z,4.07
2023-05-11T00:56:28.752Z,3.97
2023-05-11T00:58:56.324Z,4.22
2023-05-11T01:01:24.150Z,3.75
2023-05-11T01:03:51.850Z,4.10
2023-05-11T01:06:29.519Z,4.18
2023-05-11T01:09:02.727Z,3.92
2023-05-11T01:11:40.824Z,4.18
2023-05-11T01:14:15.408Z,3.88
2023-05-11T01:16:46.327Z,3.90
2023-05-11T01:19:24.389Z,4.28
2023-05-11T01:21:52.322Z,4.32
2023-05-11T01:24:38.172Z,3.92
2023-05-11T01:27:32.009Z,4.22
2023-05-11T01:30:33.798Z,4.22
2023-05-11T01:33:09.008Z,4.22
2023-05-11T01:35:41.455Z,4.07
2023-05-11T01:38:13.318Z,4.53
2023-05-11T01:40:43.069Z,4.90
2023-05-11T01:43:14.257Z,3.88
2023-05-11T01:45:49.188Z,4.10
2023-05-11T01:48:23.144Z,4.47
2023-05-11T01:50:51.386Z,4.28
2023-05-11T01:53:20.273Z,3.70
2023-05-11T01:55:50.416Z,4.60
2023-05-11T01:58:19.751Z,4.05
2023-05-11T02:00:48.893Z,3.88
2023-05-11T02:03:19.000Z,4.38
2023-05-11T02:05:49.145Z,4.53
2023-05-11T02:08:18.593Z,4.32
2023-05-11T02:10:47.249Z,4.07
2023-05-11T02:13:17.722Z,4.38
2023-05-11T02:15:46.530Z,3.55
2023-05-11T02:18:17.196Z,4.68
2023-05-11T02:20:46.895Z,4.57
2023-05-11T02:23:16.657Z,4.72
2023-05-11T02:25:44.706Z,4.78
2023-05-11T02:28:12.588Z,4.93
2023-05-11T02:30:44.906Z,4.50
2023-05-11T02:33:19.549Z,4.60
2023-05-11T02:35:47.627Z,4.90
2023-05-11T02:38:17.820Z,4.88
2023-05-11T02:40:49.242Z,4.53
2023-05-11T02:43:23.722Z,4.72
2023-05-11T02:45:54.517Z,4.18
2023-05-11T02:48:27.622Z,5.07
2023-05-11T02:50:57.168Z,4.28
2023-05-11T02:53:28.258Z,4.88
2023-05-11T02:55:56.340Z,4.78
2023-05-11T02:58:24.142Z,4.53
2023-05-11T03:00:51.878Z,4.57
2023-05-11T03:03:19.955Z,4.72
2023-05-11T03:05:48.985Z,4.68
2023-05-11T03:08:17.017Z,4.15
2023-05-11T03:10:45.421Z,5.05
2023-05-11T03:13:13.770Z,4.75
2023-05-11T03:15:42.052Z,4.45
2023-05-11T03:18:11.663Z,4.50
2023-05-11T03:20:43.168Z,4.95
2023-05-11T03:23:13.246Z,5.10
2023-05-11T03:25:42.125Z,4.35
2023-05-11T03:28:11.256Z,4.97
2023-05-11T03:30:40.643Z,5.15
2023-05-11T03:33:08.670Z,4.95
2023-05-11T03:35:37.258Z,4.43
2023-05-11T03:38:06.151Z,5.78
2023-05-11T03:40:37.695Z,4.88
2023-05-11T03:43:08.553Z,5.22
2023-05-11T03:45:37.744Z,5.13
2023-05-11T03:48:07.374Z,5.00
2023-05-11T03:50:35.186Z,4.90
2023-05-11T03:53:04.371Z,5.10
2023-05-11T03:55:32.389Z,5.80
2023-05-11T03:58:04.206Z,5.20
2023-05-11T04:00:31.979Z,4.88
2023-05-11T04:03:04.789Z,5.32
2023-05-11T04:05:32.695Z,5.10
2023-05-11T04:08:01.345Z,4.97
2023-05-11T04:10:28.784Z,5.97
2023-05-11T04:12:56.859Z,4.80
2023-05-11T04:15:25.896Z,5.07
2023-05-11T04:17:53.958Z,5.00
2023-05-11T04:20:21.461Z,4.93
2023-05-11T04:22:49.335Z,5.40
2023-05-11T04:25:17.032Z,5.10
2023-05-11T04:27:45.016Z,5.55
2023-05-11T04:30:12.953Z,5.43
2023-05-11T04:32:42.808Z,5.78
2023-05-11T04:35:10.590Z,4.93
2023-05-11T04:37:38.471Z,5.60
2023-05-11T04:40:07.368Z,6.15
2023-05-11T04:42:35.258Z,5.50
2023-05-11T04:45:02.785Z,5.07
2023-05-11T04:47:30.631Z,5.85
2023-05-11T04:49:59.930Z,6.05
2023-05-11T04:52:27.904Z,5.70
2023-05-11T04:54:55.329Z,5.97
2023-05-11T04:57:23.077Z,5.50
2023-05-11T04:59:50.615Z,5.32
2023-05-11T05:02:18.920Z,6.20
2023-05-11T05:04:46.437Z,6.00
2023-05-11T05:07:16.020Z,5.57
2023-05-11T05:09:45.190Z,5.93
2023-05-11T05:12:13.409Z,6.25
2023-05-11T05:14:40.865Z,5.50
2023-05-11T05:17:08.752Z,5.85
2023-05-11T05:19:36.125Z,6.00
2023-05-11T05:22:03.942Z,5.57
2023-05-11T05:24:33.457Z,5.80
2023-05-11T05:27:01.272Z,5.85
2023-05-11T05:29:28.867Z,5.82
2023-05-11T05:31:56.944Z,5.88
2023-05-11T05:34:24.379Z,5.57
2023-05-11T05:36:52.301Z,5.65
2023-05-11T05:39:20.395Z,5.90
2023-05-11T05:41:49.762Z,5.47
2023-05-11T05:44:17.265Z,6.00
2023-05-11T05:46:45.454Z,5.88
2023-05-11T05:49:13.021Z,5.93
2023-05-11T05:51:41.108Z,5.70
2023-05-11T05:54:08.473Z,5.47
2023-05-11T05:56:36.458Z,6.05
2023-05-11T05:59:05.775Z,5.78
2023-05-11T06:01:33.756Z,5.97
2023-05-11T06:04:01.290Z,6.13
2023-05-11T06:06:29.232Z,5.40
2023-05-11T06:08:56.751Z,5.10
2023-05-11T06:11:24.457Z,5.65
2023-05-11T06:13:51.808Z,6.05
2023-05-11T06:16:21.150Z,5.68
2023-05-11T06:18:48.662Z,5.68
2023-05-11T06:21:16.353Z,5.40
2023-05-11T06:23:43.692Z,5.78
2023-05-11T06:26:11.430Z,4.90
2023-05-11T06:28:39.073Z,4.75
2023-05-11T06:31:06.862Z,6.07
2023-05-11T06:33:35.616Z,5.18
2023-05-11T06:36:07.081Z,5.20
2023-05-11T06:38:34.533Z,5.15
2023-05-11T06:41:02.301Z,4.72
2023-05-11T06:43:29.698Z,4.80
2023-05-11T06:45:57.467Z,5.10
2023-05-11T06:48:24.922Z,4.85
2023-05-11T06:50:54.262Z,3.88
2023-05-11T06:53:21.870Z,4.20
2023-05-11T06:55:49.746Z,4.07
2023-05-11T06:58:17.140Z,4.55
2023-05-11T07:00:44.980Z,3.83
2023-05-11T07:03:12.393Z,4.47
2023-05-11T07:05:40.499Z,3.63
2023-05-11T07:08:09.650Z,4.47
2023-05-11T07:10:37.469Z,4.60
2023-05-11T07:13:04.831Z,4.40
2023-05-11T07:15:32.670Z,4.65
2023-05-11T07:18:00.216Z,4.40
2023-05-11T07:20:28.018Z,4.40
2023-05-11T07:22:57.383Z,5.07
2023-05-11T07:25:26.659Z,4.45
2023-05-11T07:27:53.983Z,4.50
2023-05-11T07:30:21.974Z,4.28
2023-05-11T07:32:49.539Z,4.20
2023-05-11T07:35:17.307Z,4.63
2023-05-11T07:37:44.771Z,4.43
2023-05-11T07:40:12.684Z,5.18
2023-05-11T07:42:41.408Z,4.78
2023-05-11T07:45:09.907Z,4.63
2023-05-11T07:47:37.740Z,3.90
2023-05-11T07:50:07.008Z,4.63
2023-05-11T07:52:34.415Z,5.53
2023-05-11T07:55:02.648Z,3.40
2023-05-11T07:57:30.163Z,4.20
2023-05-11T07:59:59.460Z,4.10
2023-05-11T08:02:27.170Z,3.78
2023-05-11T08:04:55.050Z,3.60
2023-05-11T08:07:22.892Z,4.60
2023-05-11T08:09:50.585Z,4.40
2023-05-11T08:12:18.623Z,4.05
2023-05-11T08:14:46.050Z,2.65
2023-05-11T08:17:15.273Z,5.63
2023-05-11T08:19:42.845Z,3.80
2023-05-11T08:22:10.736Z,2.38
2023-05-11T08:24:38.337Z,2.60
2023-05-11T08:27:06.389Z,5.07
2023-05-11T08:29:34.000Z,2.72
2023-05-11T08:32:01.764Z,2.47
2023-05-11T08:34:30.956Z,2.00
2023-05-11T08:36:58.892Z,2.33
2023-05-11T08:39:43.611Z,1.88
2023-05-11T08:42:16.566Z,1.90
2023-05-11T08:44:45.011Z,1.95
2023-05-11T08:49:45.448Z,2.00
2023-05-11T08:52:15.217Z,1.90
2023-05-11T08:54:42.672Z,1.85
2023-05-11T08:57:13.537Z,2.10
2023-05-11T08:59:44.245Z,1.80
2023-05-11T09:02:16.740Z,2.05
2023-05-11T09:04:48.911Z,2.10
2023-05-11T09:07:17.598Z,1.60
2023-05-11T09:09:46.162Z,2.05
2023-05-11T09:12:14.199Z,2.22
2023-05-11T09:14:41.857Z,2.15
2023-05-11T09:17:09.869Z,2.42
2023-05-11T09:19:37.379Z,1.85
2023-05-11T09:22:07.041Z,1.63
2023-05-11T09:24:34.378Z,2.05
2023-05-11T09:27:08.555Z,2.15
2023-05-11T09:29:35.994Z,2.10
2023-05-11T09:32:04.645Z,1.80
2023-05-11T09:34:32.038Z,2.08
2023-05-11T09:36:59.834Z,2.20
2023-05-11T09:42:14.573Z,2.05
2023-05-11T09:44:42.199Z,2.25
2023-05-11T09:47:14.347Z,2.40
2023-05-11T09:52:11.204Z,2.13
2023-05-11T09:54:44.561Z,2.40
2023-05-11T09:57:26.129Z,1.95
2023-05-11T09:59:54.259Z,2.00
2023-05-11T10:02:23.233Z,3.05
2023-05-11T10:04:52.438Z,2.00
2023-05-11T10:07:28.963Z,2.13
2023-05-11T10:09:59.105Z,2.00
2023-05-11T10:12:28.267Z,2.42
2023-05-11T10:14:58.694Z,2.30
2023-05-11T10:17:27.220Z,1.80
2023-05-11T10:19:55.781Z,1.70
2023-05-11T10:22:25.416Z,1.70
2023-05-11T10:24:53.662Z,1.63
2023-05-11T10:27:23.096Z,1.70
2023-05-11T10:29:50.645Z,1.85
2023-05-11T10:32:20.172Z,2.50
2023-05-11T10:34:48.552Z,2.05
2023-05-11T10:37:16.700Z,2.17
2023-05-11T10:39:47.742Z,2.00
2023-05-11T10:42:35.963Z,1.80
2023-05-11T10:45:21.606Z,1.70
2023-05-11T10:48:37.208Z,1.70
2023-05-11T10:51:33.534Z,1.98
2023-05-11T10:54:12.990Z,2.08
2023-05-11T10:56:58.117Z,2.25
2023-05-11T10:59:46.101Z,1.80
2023-05-11T11:02:13.780Z,1.65
2023-05-11T11:04:46.047Z,2.05
2023-05-11T11:09:52.080Z,1.92
2023-05-11T11:12:21.213Z,1.83
2023-05-11T11:14:58.795Z,2.28
2023-05-11T11:17:28.327Z,1.90
2023-05-11T11:19:56.249Z,1.90
2023-05-11T11:22:45.774Z,1.80
2023-05-11T11:25:14.502Z,2.03
2023-05-11T11:27:58.774Z,2.00
2023-05-11T11:30:29.467Z,2.20
2023-05-11T11:33:33.035Z,1.98
2023-05-11T11:36:01.406Z,1.80
2023-05-11T11:38:30.729Z,1.80
2023-05-11T11:40:58.971Z,1.73
2023-05-11T11:43:28.481Z,2.10
2023-05-11T11:45:59.816Z,2.22
2023-05-11T11:48:31.436Z,2.05
2023-05-11T11:51:04.983Z,2.10
2023-05-11T11:54:05.826Z,2.20
2023-05-11T11:56:43.476Z,2.00
2023-05-11T11:59:17.007Z,1.85
2023-05-11T12:01:51.536Z,1.65
2023-05-11T12:04:51.915Z,1.60
2023-05-11T12:07:20.965Z,1.60
2023-05-11T12:09:48.602Z,1.73
2023-05-11T12:12:18.179Z,1.88
2023-05-11T12:14:47.916Z,1.80
2023-05-11T12:17:24.451Z,1.80
2023-05-11T12:19:51.759Z,1.52
2023-05-11T12:22:23.238Z,1.60
2023-05-11T12:24:50.864Z,2.00
2023-05-11T12:27:18.551Z,2.00
2023-05-11T12:29:49.433Z,1.70
2023-05-11T12:32:27.397Z,1.80
2023-05-11T12:34:58.621Z,1.67
2023-05-11T12:37:29.626Z,2.10
2023-05-11T12:39:58.042Z,2.13
2023-05-11T12:42:26.252Z,2.00
2023-05-11T12:44:55.072Z,1.92
2023-05-11T12:47:23.072Z,2.65
2023-05-11T12:49:52.152Z,2.10
2023-05-11T12:52:23.154Z,2.00
2023-05-11T12:54:51.263Z,2.10
2023-05-11T12:57:26.551Z,1.77
2023-05-11T13:00:08.386Z,2.25
2023-05-11T13:02:43.425Z,1.85
2023-05-11T13:05:14.219Z,1.60
2023-05-11T13:07:42.329Z,1.88
2023-05-11T13:10:11.722Z,1.75
2023-05-11T13:12:48.934Z,1.80
2023-05-11T13:15:16.428Z,1.60
2023-05-11T13:17:44.702Z,1.67
2023-05-11T13:20:20.914Z,1.95
2023-05-11T13:22:49.795Z,1.70
2023-05-11T13:25:21.113Z,1.63
2023-05-11T13:27:49.417Z,1.83
2023-05-11T13:30:16.900Z,1.83
2023-05-11T13:32:44.975Z,2.00
2023-05-11T13:35:12.813Z,1.83
2023-05-11T13:37:42.280Z,1.80
2023-05-11T13:40:10.793Z,1.98
2023-05-11T13:42:38.783Z,2.03
2023-05-11T13:45:07.568Z,2.50
2023-05-11T13:47:35.419Z,2.33
2023-05-11T13:50:03.029Z,2.65
2023-05-11T13:52:30.787Z,2.10
2023-05-11T13:54:59.798Z,2.35
2023-05-11T13:57:27.734Z,2.58
2023-05-11T13:59:55.066Z,2.28
2023-05-11T14:02:22.791Z,2.08
2023-05-11T14:04:50.126Z,2.28
2023-05-11T14:07:48.983Z,2.75
2023-05-11T14:14:35.735Z,2.47
2023-05-11T14:17:36.898Z,2.67
2023-05-11T14:20:14.703Z,2.42
2023-05-11T14:22:48.792Z,2.38
2023-05-11T14:25:20.050Z,2.15
2023-05-11T14:28:20.567Z,2.08
2023-05-11T14:31:02.839Z,2.30
2023-05-11T14:33:36.523Z,2.30
2023-05-11T14:36:04.876Z,2.00
2023-05-11T14:38:32.170Z,2.00
2023-05-11T14:41:00.036Z,2.58
2023-05-11T14:43:27.577Z,2.20
2023-05-11T14:45:55.448Z,2.45
2023-05-11T14:48:24.379Z,1.90
2023-05-11T14:50:52.272Z,2.20
2023-05-11T14:53:19.852Z,2.10
2023-05-11T14:55:47.708Z,2.13
2023-05-11T14:58:15.058Z,2.20
2023-05-11T15:00:43.056Z,2.50
2023-05-11T15:03:10.819Z,2.05
2023-05-11T15:05:40.661Z,2.00
2023-05-11T15:08:18.358Z,1.92
2023-05-11T15:10:54.162Z,1.85
2023-05-11T15:13:22.404Z,2.00
2023-05-11T15:15:50.506Z,2.20
2023-05-11T15:18:18.141Z,2.20
2023-05-11T15:20:47.726Z,2.28
2023-05-11T15:23:15.311Z,2.30
2023-05-11T15:25:43.142Z,2.20
2023-05-11T15:28:10.657Z,1.92
2023-05-11T15:30:38.503Z,2.30
2023-05-11T15:33:06.113Z,2.22
2023-05-11T15:36:04.891Z,2.50
2023-05-11T15:39:08.372Z,2.40
2023-05-11T15:41:38.575Z,2.10
2023-05-11T15:44:13.119Z,2.22
2023-05-11T15:46:41.001Z,2.53
2023-05-11T15:49:08.539Z,2.70
2023-05-11T15:51:36.295Z,2.30
2023-05-11T15:54:05.658Z,2.40
2023-05-11T15:56:33.407Z,2.38
2023-05-11T15:59:00.865Z,1.95
2023-05-11T16:01:28.822Z,2.58
2023-05-11T16:03:56.599Z,2.60
2023-05-11T16:06:24.613Z,2.35
2023-05-11T16:08:52.139Z,2.60
2023-05-11T16:11:21.576Z,2.85
2023-05-11T16:13:48.938Z,2.20
2023-05-11T16:16:17.044Z,2.40
2023-05-11T16:18:44.410Z,2.10
2023-05-11T16:21:12.962Z,2.67
2023-05-11T16:23:40.615Z,2.65
2023-05-11T16:26:08.493Z,2.13
2023-05-11T16:28:37.392Z,2.40
2023-05-11T16:31:05.509Z,2.63
2023-05-11T16:33:32.982Z,2.40
2023-05-11T16:36:00.874Z,2.35
2023-05-11T16:38:28.373Z,2.35
2023-05-11T16:40:56.274Z,3.03
2023-05-11T16:43:23.712Z,2.30
2023-05-11T16:45:53.393Z,2.90
2023-05-11T16:48:20.825Z,2.53
2023-05-11T16:50:48.890Z,2.33
2023-05-11T16:53:16.289Z,2.45
2023-05-11T16:55:44.195Z,2.47
2023-05-11T16:58:11.779Z,2.63
2023-05-11T17:00:40.010Z,2.90
2023-05-11T17:03:08.837Z,2.50
2023-05-11T17:05:36.823Z,2.75
2023-05-11T17:08:04.386Z,2.95
2023-05-11T17:10:32.268Z,2.70
2023-05-11T17:12:59.623Z,2.47
2023-05-11T17:15:27.738Z,2.80
2023-05-11T17:17:55.120Z,2.53
2023-05-11T17:20:24.689Z,2.50
2023-05-11T17:22:52.481Z,2.65
2023-05-11T17:25:22.237Z,2.75
2023-05-11T17:27:49.781Z,2.90
2023-05-11T17:30:17.917Z,2.75
2023-05-11T17:32:45.995Z,2.78
2023-05-11T17:35:14.258Z,2.85
2023-05-11T17:37:43.435Z,2.90
2023-05-11T17:40:12.056Z,2.50
2023-05-11T17:42:39.521Z,2.70
2023-05-11T17:45:08.877Z,2.80
2023-05-11T17:47:36.523Z,2.72
2023-05-11T17:50:04.798Z,2.75
2023-05-11T17:52:32.466Z,3.35
2023-05-11T17:55:01.852Z,2.40
2023-05-11T17:57:29.239Z,2.80
2023-05-11T17:59:57.057Z,2.90
2023-05-11T18:02:24.712Z,3.15
2023-05-11T18:04:52.640Z,2.95
2023-05-11T18:07:20.249Z,3.17
2023-05-11T18:09:48.235Z,2.80
2023-05-11T18:12:17.321Z,2.80
2023-05-11T18:14:45.524Z,3.50
2023-05-11T18:17:12.859Z,2.53
2023-05-11T18:19:40.827Z,2.35
2023-05-11T18:22:08.210Z,2.97
2023-05-11T18:24:35.951Z,2.33
2023-05-11T18:27:03.568Z,2.90
2023-05-11T18:29:32.989Z,3.05
2023-05-11T18:32:00.714Z,2.60
2023-05-11T18:34:29.066Z,2.75
2023-05-11T18:36:56.555Z,3.08
2023-05-11T18:39:24.450Z,2.85
2023-05-11T18:41:51.880Z,3.15
2023-05-11T18:44:19.737Z,3.22
2023-05-11T18:46:48.696Z,2.42
2023-05-11T18:49:16.693Z,2.60
2023-05-11T18:51:44.075Z,3.05
2023-05-11T18:54:11.965Z,2.33
2023-05-11T18:56:39.423Z,2.88
2023-05-11T18:59:07.588Z,2.38
2023-05-11T19:01:46.468Z,2.78
2023-05-11T19:04:16.466Z,2.65
2023-05-11T19:06:44.046Z,2.70
2023-05-11T19:09:12.050Z,2.30
2023-05-11T19:11:39.451Z,2.58
2023-05-11T19:14:07.331Z,2.58
2023-05-11T19:16:34.725Z,2.42
2023-05-11T19:19:02.774Z,2.90
2023-05-11T19:21:31.799Z,2.53
2023-05-11T19:23:59.710Z,2.50
2023-05-11T19:26:27.253Z,2.70
2023-05-11T19:28:55.181Z,2.40
2023-05-11T19:31:23.064Z,2.42
2023-05-11T19:33:51.351Z,2.10
2023-05-11T19:36:19.249Z,1.85
2023-05-11T19:38:51.735Z,2.63
2023-05-11T19:41:19.731Z,2.40
2023-05-11T19:43:47.748Z,2.30
2023-05-11T19:46:15.291Z,2.55
2023-05-11T19:48:43.184Z,2.30
2023-05-11T19:51:10.907Z,2.72
2023-05-11T19:53:38.922Z,2.45
2023-05-11T19:56:07.971Z,2.60
2023-05-11T19:58:35.957Z,2.35
2023-05-11T20:01:03.852Z,2.10
2023-05-11T20:03:32.140Z,2.55
2023-05-11T20:05:59.762Z,2.42
2023-05-11T20:08:27.666Z,2.10
2023-05-11T20:10:55.519Z,2.05
2023-05-11T20:13:24.920Z,2.28
2023-05-11T20:15:52.433Z,1.90
2023-05-11T20:18:20.339Z,2.28
2023-05-11T20:20:48.055Z,2.08
2023-05-11T20:23:16.007Z,2.28
2023-05-11T20:25:43.508Z,2.13
2023-05-11T20:28:11.547Z,2.50
2023-05-11T20:30:40.669Z,2.28
2023-05-11T20:35:39.419Z,2.20
2023-05-11T20:38:07.297Z,2.38
2023-05-11T20:40:34.623Z,2.50
2023-05-11T20:43:03.641Z,2.78
2023-05-11T20:45:31.227Z,2.45
2023-05-11T20:48:00.764Z,2.80
2023-05-11T20:50:28.367Z,2.92
2023-05-11T20:52:56.208Z,2.78
2023-05-11T20:55:23.837Z,2.63
2023-05-11T20:57:51.806Z,2.80
2023-05-11T21:00:19.675Z,2.55
2023-05-11T21:02:47.924Z,3.03
2023-05-11T21:05:17.151Z,2.50
2023-05-11T21:07:45.444Z,3.13
2023-05-11T21:10:13.275Z,3.15
2023-05-11T21:12:41.061Z,3.10
2023-05-11T21:15:09.549Z,2.80
2023-05-11T21:17:37.549Z,3.03
2023-05-11T21:20:05.961Z,2.72
2023-05-11T21:22:35.815Z,3.17
2023-05-11T21:25:04.309Z,2.78
2023-05-11T21:27:32.200Z,3.00
2023-05-11T21:29:59.618Z,3.45
2023-05-11T21:32:27.491Z,2.83
2023-05-11T21:34:55.001Z,3.10
2023-05-11T21:37:22.700Z,2.58
2023-05-11T21:39:52.078Z,2.80
2023-05-11T21:42:20.028Z,2.90
2023-05-11T21:44:47.445Z,2.58
2023-05-11T21:47:15.471Z,3.17
2023-05-11T21:49:42.993Z,2.85
2023-05-11T21:52:10.911Z,2.63
2023-05-11T21:54:38.292Z,2.80
2023-05-11T21:57:07.916Z,2.72
2023-05-11T21:59:35.441Z,2.70
2023-05-11T22:02:03.848Z,3.08
2023-05-11T22:04:31.529Z,2.90
2023-05-11T22:07:01.047Z,2.58
2023-05-11T22:09:29.125Z,3.15
2023-05-11T22:11:56.967Z,2.72
2023-05-11T22:14:25.884Z,2.88
2023-05-11T22:16:53.797Z,2.75
2023-05-11T22:19:21.245Z,2.80
2023-05-11T22:21:49.606Z,3.08
2023-05-11T22:24:17.096Z,2.70
2023-05-11T22:26:44.930Z,2.63
2023-05-11T22:29:12.610Z,2.60
2023-05-11T22:31:43.993Z,2.55
2023-05-11T22:34:12.807Z,2.72
2023-05-11T22:36:40.644Z,2.88
2023-05-11T22:39:08.166Z,3.00
2023-05-11T22:41:36.051Z,2.40
2023-05-11T22:44:03.636Z,2.90
2023-05-11T22:46:31.523Z,2.63
2023-05-11T22:49:00.537Z,2.63
2023-05-11T22:51:28.196Z,3.00
2023-05-11T22:53:55.597Z,2.80
2023-05-11T22:56:23.579Z,2.80
2023-05-11T22:58:51.056Z,2.45
2023-05-11T23:01:19.110Z,2.47
2023-05-11T23:03:46.386Z,2.90
2023-05-11T23:06:15.727Z,2.45
2023-05-11T23:08:43.189Z,2.90
2023-05-11T23:11:10.903Z,3.35
2023-05-11T23:13:38.353Z,2.72
2023-05-11T23:16:06.177Z,3.28
2023-05-11T23:18:33.791Z,2.72
2023-05-11T23:21:01.765Z,2.60
2023-05-11T23:23:30.726Z,3.33
2023-05-11T23:25:58.750Z,3.53
2023-05-11T23:28:26.164Z,2.50
2023-05-11T23:30:53.874Z,3.30
2023-05-11T23:33:21.397Z,2.85
2023-05-11T23:35:49.199Z,2.80
2023-05-11T23:38:16.672Z,2.95
2023-05-11T23:40:46.202Z,3.10
2023-05-11T23:43:13.720Z,2.72
2023-05-11T23:45:41.709Z,2.83
2023-05-11T23:48:09.097Z,2.85
2023-05-11T23:50:37.129Z,2.88
2023-05-11T23:53:04.698Z,3.33
2023-05-11T23:55:32.454Z,2.97
2023-05-11T23:58:01.356Z,3.28
